San Luis, AZ

8:23 AM MST en Octubre 24, 2014 (GMT -0700)
YCWUA International Boundary Pumping Plant | Change Station
CLOSE
Current Station
Estación meteorológica personal
Location: San Luis, AZ
Altura: 79 ft
Estaciones meteorológicas cercanas

Alt 79 ft 32.49 °N, 114.79 °W | Updated 0 second ago

Despejado
Despejado
71.9 ° F
Sensación térmica 77 ° F
N
2.0
Viento Variable Viento desde NE
Gusts 2.0 mph

Hoy
Alta -- | Baja -- ° F
--% Posibilidad de precipitaciones
Ayer
Alta -- | Baja -- ° F
Precip. -- pul
6:49 AM 5:56 PM
Luna nueva, 1% visible
Presión 29.96 pul
Visibilidad 10.0 Millas
Nubes Despejado
Índice de calor 77 ° F
Punto de rocío 52 ° F
Humedad 49%
Precipitaciones 0.00 pul
Espesor de la nieve No disponible.
UV 1 de una escala de 12
Polen 6.10 de una escala de 12
Calidad del aire No disponible.
Flu Activity No Activity
METAR KNYL 241457Z 02005KT 10SM CLR 22/07 A2996 RMK AO2 SLP143 T02220072 53016

More Conditions Fewer Conditions

Presión 29.96 pul
Visibilidad 10.0 Millas
Nubes Despejado
Índice de calor 77 ° F
Punto de rocío 52 ° F
Humedad 49%
Precipitaciones 0.00 pul
Espesor de la nieve No disponible.
UV 1 de una escala de 12
Polen 6.10 de una escala de 12
Calidad del aire No disponible.
Flu Activity No Activity
METAR KNYL 241457Z 02005KT 10SM CLR 22/07 A2996 RMK AO2 SLP143 T02220072 53016

More Conditions Fewer Conditions

10-Day Weather Forecast

Almanac

Astronomía

Oct. 24, 2014 Salida Puesta
Hora real 6:49 AM MST 5:56 PM MST
Crepúsculo civil 6:24 AM MST 6:21 PM MST
Crepúsculo náutico 5:56 AM MST 6:49 PM MST
Crepúsculo astronómico 5:27 AM MST 7:18 PM MST
Luna 7:31 AM MST 6:41 PM MST
Horas de luz 11h 56m
Horas de luz
11h 06m
Tomorrow will be 1m 50s shorter.
Luna nueva, 1% of the Moon is Illuminated
Hoy
Luna nueva
Oct 30
Cuarto creciente
Nov 6
Luna llena
Nov 14
Cuarto menguante
Nov 22
Nueva

Extremos de hoy

Máximos del estado Bajos del estado

Community

WunderPhotos

Upload Photos

1,764,588 ¡fotos cargadas!

WunderBlogs® & News

By Dr. Jeff Masters
Director of Meteorology, Weather Underground
By Kari Strenfel
Meteorologist, Weather Underground
By Christopher C. Burt
Weather Historian, Weather Underground
October 24, 2014
October 24, 2014
October 24, 2014

Nearby

Grosos de nieve

Estación Profundido Altura
White Horse Lake 1 in 7180 ft
Baker Butte 0 in 7300 ft
Workman Creek 0 in 6900 ft
Happy Jack 0 in 7630 ft
Mormon Mountain 0 in 7500 ft

Actividad de terremotos

Ciudad Distance Mag. Tiempo y dato
Alberto Oviedo Mota, Mexico 82 Millas 3.5 9:05 PM MST
2014-10-21
Delta, Mexico 27 Millas 2.5 8:53 PM MST
2014-10-21
Alberto Oviedo Mota, Mexico 33 Millas 2.7 4:13 PM MST
2014-10-21
Alberto Oviedo Mota, Mexico 32 Millas 3.3 3:57 PM MST
2014-10-21
Magnitud mínima muestra es 2,5.

Temperaturas de aguas costeras

Lugar Temperatura
Sin partes meteorológicos de las estaciones

Estaciones meteorológicas cercanas